createdAt,value
2017-03-12T00:00:33.852Z,0
2017-03-12T00:01:14.298Z,0
2017-03-12T00:01:54.813Z,0
2017-03-12T00:02:35.309Z,0
2017-03-12T00:03:15.821Z,0
2017-03-12T00:03:56.276Z,0
2017-03-12T00:04:36.773Z,0
2017-03-12T00:05:17.227Z,0
2017-03-12T00:05:57.708Z,0
2017-03-12T00:06:38.210Z,0
2017-03-12T00:07:18.691Z,0
2017-03-12T00:07:59.184Z,0
2017-03-12T00:08:39.657Z,0
2017-03-12T00:09:20.134Z,0
2017-03-12T00:10:00.781Z,0
2017-03-12T00:10:41.302Z,0
2017-03-12T00:11:21.805Z,0
2017-03-12T00:12:02.290Z,0
2017-03-12T00:12:42.748Z,0
2017-03-12T00:13:23.214Z,0
2017-03-12T00:14:03.731Z,0
2017-03-12T00:14:44.179Z,0
2017-03-12T00:15:24.684Z,0
2017-03-12T00:16:05.141Z,0
2017-03-12T00:16:45.617Z,0
2017-03-12T00:17:26.089Z,0
2017-03-12T00:18:06.563Z,0
2017-03-12T00:18:47.066Z,0
2017-03-12T00:19:27.540Z,0
2017-03-12T00:20:08.041Z,0
2017-03-12T00:20:48.486Z,0
2017-03-12T00:21:28.981Z,0
2017-03-12T00:22:09.474Z,0
2017-03-12T00:22:49.960Z,0
2017-03-12T00:23:30.449Z,0
2017-03-12T00:24:10.943Z,0
2017-03-12T00:24:51.425Z,0
2017-03-12T00:25:31.931Z,0
2017-03-12T00:26:12.398Z,0
2017-03-12T00:26:52.875Z,0
2017-03-12T00:27:33.326Z,0
2017-03-12T00:28:13.949Z,0
2017-03-12T00:28:54.413Z,0
2017-03-12T00:29:34.904Z,0
2017-03-12T00:30:15.364Z,0
2017-03-12T00:30:55.855Z,0
2017-03-12T00:31:36.332Z,0
2017-03-12T00:32:16.837Z,0
2017-03-12T00:32:57.307Z,0
2017-03-12T00:33:37.765Z,0
2017-03-12T00:34:18.227Z,0
2017-03-12T00:34:58.753Z,0
2017-03-12T00:35:39.226Z,0
2017-03-12T00:36:19.729Z,0
2017-03-12T00:37:00.185Z,0
2017-03-12T00:37:40.660Z,0
2017-03-12T00:38:21.147Z,0
2017-03-12T00:39:01.625Z,0
2017-03-12T00:39:42.071Z,0
2017-03-12T00:40:22.563Z,0
2017-03-12T00:41:03.032Z,0
2017-03-12T00:41:43.538Z,0
2017-03-12T00:42:24.019Z,0
2017-03-12T00:43:04.495Z,0
2017-03-12T00:43:44.991Z,0
2017-03-12T00:44:25.504Z,0
2017-03-12T00:45:06.004Z,0
2017-03-12T00:45:46.503Z,0
2017-03-12T00:46:26.976Z,0
2017-03-12T00:47:07.445Z,0
2017-03-12T00:47:47.952Z,0
2017-03-12T00:48:28.434Z,0
2017-03-12T00:49:08.907Z,0
2017-03-12T00:49:49.467Z,0
2017-03-12T00:50:29.894Z,0
2017-03-12T00:51:10.381Z,0
2017-03-12T00:51:50.876Z,0
2017-03-12T00:52:31.348Z,0
2017-03-12T00:53:11.817Z,0
2017-03-12T00:53:52.260Z,0
2017-03-12T00:54:32.777Z,0
2017-03-12T00:55:13.245Z,0
2017-03-12T00:55:53.739Z,0
2017-03-12T00:56:34.243Z,0
2017-03-12T00:57:14.677Z,0
2017-03-12T00:57:55.156Z,0
2017-03-12T00:58:35.681Z,0
2017-03-12T00:59:16.176Z,0
2017-03-12T00:59:56.668Z,0
2017-03-12T01:00:37.096Z,0
2017-03-12T01:01:17.573Z,0
2017-03-12T01:01:58.084Z,0
2017-03-12T01:02:38.662Z,0
2017-03-12T01:03:19.103Z,0
2017-03-12T01:03:59.566Z,0
2017-03-12T01:04:40.058Z,0
2017-03-12T01:05:20.547Z,0
2017-03-12T01:06:01.036Z,0
2017-03-12T01:06:41.532Z,0
2017-03-12T01:07:22.027Z,0
2017-03-12T01:08:02.529Z,0
2017-03-12T01:08:42.994Z,0
2017-03-12T01:09:23.461Z,0
2017-03-12T01:10:03.964Z,0
2017-03-12T01:10:44.459Z,0
2017-03-12T01:11:24.951Z,0
2017-03-12T01:12:05.452Z,0
2017-03-12T01:12:45.971Z,0
2017-03-12T01:13:26.440Z,0
2017-03-12T01:14:06.934Z,0
2017-03-12T01:14:47.413Z,0
2017-03-12T01:15:27.917Z,0
2017-03-12T01:16:08.414Z,0
2017-03-12T01:16:48.893Z,0
2017-03-12T01:17:29.384Z,0
2017-03-12T01:18:09.845Z,0
2017-03-12T01:18:50.383Z,0
2017-03-12T01:19:32.780Z,0
2017-03-12T01:20:13.281Z,0
2017-03-12T01:20:53.781Z,0
2017-03-12T01:21:34.281Z,0
2017-03-12T01:22:14.763Z,0
2017-03-12T01:22:55.308Z,0
2017-03-12T01:23:35.764Z,0
2017-03-12T01:24:16.229Z,0
2017-03-12T01:24:56.729Z,0
2017-03-12T01:25:37.232Z,0
2017-03-12T01:26:17.702Z,0
2017-03-12T01:26:58.190Z,0
2017-03-12T01:27:38.709Z,0
2017-03-12T01:28:19.222Z,0
2017-03-12T01:28:59.726Z,0
2017-03-12T01:29:40.184Z,0
2017-03-12T01:30:20.675Z,0
2017-03-12T01:31:01.128Z,0
2017-03-12T01:31:41.607Z,0
2017-03-12T01:32:22.118Z,0
2017-03-12T01:33:02.592Z,0
2017-03-12T01:33:43.055Z,0
2017-03-12T01:34:23.548Z,0
2017-03-12T01:35:04.002Z,0
2017-03-12T01:35:44.500Z,0
2017-03-12T01:36:24.944Z,0
2017-03-12T01:37:05.421Z,0
2017-03-12T01:37:45.903Z,0
2017-03-12T01:38:26.405Z,0
2017-03-12T01:39:06.871Z,0
2017-03-12T01:39:47.373Z,0
2017-03-12T01:40:27.873Z,0
2017-03-12T01:41:08.361Z,0
2017-03-12T01:41:48.838Z,0
2017-03-12T01:42:29.330Z,0
2017-03-12T01:43:09.812Z,0
2017-03-12T01:43:50.298Z,0
2017-03-12T01:44:30.759Z,0
2017-03-12T01:45:11.247Z,0
2017-03-12T01:45:51.731Z,0
2017-03-12T01:46:32.261Z,0
2017-03-12T01:47:12.720Z,0
2017-03-12T01:47:53.205Z,0
2017-03-12T01:48:33.706Z,0
2017-03-12T01:49:14.198Z,0
2017-03-12T01:49:54.622Z,0
2017-03-12T01:50:35.134Z,0
2017-03-12T01:51:15.625Z,0
2017-03-12T01:51:56.095Z,0
2017-03-12T01:52:36.547Z,0
2017-03-12T01:53:17.040Z,0
2017-03-12T01:53:57.545Z,0
2017-03-12T01:54:38.030Z,0
2017-03-12T01:55:18.526Z,0
2017-03-12T01:55:59.013Z,0
2017-03-12T01:56:39.502Z,0
2017-03-12T01:57:19.981Z,0
2017-03-12T01:58:00.487Z,0
2017-03-12T01:58:41.001Z,0
2017-03-12T01:59:21.498Z,0
2017-03-12T02:00:01.992Z,0
2017-03-12T02:00:42.467Z,0
2017-03-12T02:01:22.998Z,0
2017-03-12T02:02:03.507Z,0
2017-03-12T02:02:43.964Z,0
2017-03-12T02:03:24.446Z,0
2017-03-12T02:04:04.944Z,0
2017-03-12T02:04:45.469Z,0
2017-03-12T02:05:25.942Z,0
2017-03-12T02:06:06.422Z,0
2017-03-12T02:06:46.981Z,0
2017-03-12T02:07:27.478Z,0
2017-03-12T02:08:08.022Z,0
2017-03-12T02:08:48.491Z,0
2017-03-12T02:09:28.968Z,0
2017-03-12T02:10:09.433Z,0
2017-03-12T02:10:49.927Z,0
2017-03-12T02:11:30.404Z,0
2017-03-12T02:12:10.884Z,0
2017-03-12T02:12:51.376Z,0
2017-03-12T02:13:31.823Z,0
2017-03-12T02:14:12.302Z,0
2017-03-12T02:14:52.772Z,0
2017-03-12T02:15:33.266Z,0
2017-03-12T02:16:13.765Z,0
2017-03-12T02:16:54.281Z,0
2017-03-12T02:17:34.734Z,0
2017-03-12T02:18:15.248Z,0
2017-03-12T02:18:55.709Z,0
2017-03-12T02:19:36.203Z,0
2017-03-12T02:20:16.698Z,0
2017-03-12T02:20:57.181Z,0
2017-03-12T02:21:37.638Z,0
2017-03-12T02:22:18.139Z,0
2017-03-12T02:22:58.619Z,0
2017-03-12T02:23:39.156Z,0
2017-03-12T02:24:19.599Z,0
2017-03-12T02:25:00.109Z,0
2017-03-12T02:25:40.591Z,0
2017-03-12T02:26:21.257Z,0
2017-03-12T02:27:01.729Z,0
2017-03-12T02:27:42.193Z,0
2017-03-12T02:28:22.686Z,0
2017-03-12T02:29:03.167Z,0
2017-03-12T02:29:43.633Z,0
2017-03-12T02:30:24.123Z,0
2017-03-12T02:31:04.605Z,0
2017-03-12T02:31:45.113Z,0
2017-03-12T02:32:25.622Z,0
2017-03-12T02:33:06.084Z,0
2017-03-12T02:33:46.583Z,0
2017-03-12T02:34:27.118Z,0
2017-03-12T02:35:07.621Z,0
2017-03-12T02:35:48.100Z,0
2017-03-12T02:36:28.601Z,0
2017-03-12T02:37:09.126Z,0
2017-03-12T02:37:49.600Z,0
2017-03-12T02:38:30.086Z,0
2017-03-12T02:39:10.552Z,0
2017-03-12T02:39:51.042Z,0
2017-03-12T02:40:31.495Z,0
2017-03-12T02:41:12.002Z,0
2017-03-12T02:41:52.493Z,0
2017-03-12T02:42:32.967Z,0
2017-03-12T02:43:13.460Z,0
2017-03-12T02:43:53.951Z,0
2017-03-12T02:44:34.440Z,0
2017-03-12T02:45:14.932Z,0
2017-03-12T02:45:55.423Z,0
2017-03-12T02:46:35.904Z,0
2017-03-12T02:47:16.393Z,0
2017-03-12T02:47:56.851Z,0
2017-03-12T02:48:37.347Z,0
2017-03-12T02:49:17.814Z,0
2017-03-12T02:49:58.320Z,0
2017-03-12T02:50:38.837Z,0
2017-03-12T02:51:19.303Z,0
2017-03-12T02:51:59.815Z,0
2017-03-12T02:52:40.330Z,0
2017-03-12T02:53:20.803Z,0
2017-03-12T02:54:01.262Z,0
2017-03-12T02:54:41.795Z,0
2017-03-12T02:55:22.278Z,0
2017-03-12T02:56:02.778Z,0
2017-03-12T02:56:43.280Z,0
2017-03-12T02:57:23.831Z,0
2017-03-12T02:58:04.281Z,0
2017-03-12T02:58:44.774Z,0
2017-03-12T02:59:25.257Z,0
2017-03-12T03:00:05.756Z,0
2017-03-12T03:00:46.242Z,0
2017-03-12T03:01:26.727Z,0
2017-03-12T03:02:07.198Z,0
2017-03-12T03:02:47.716Z,0
2017-03-12T03:03:28.153Z,0
2017-03-12T03:04:08.604Z,0
2017-03-12T03:04:49.122Z,0
2017-03-12T03:05:29.588Z,0
2017-03-12T03:06:10.071Z,0
2017-03-12T03:06:50.544Z,0
2017-03-12T03:07:31.022Z,0
2017-03-12T03:08:11.516Z,0
2017-03-12T03:08:52.007Z,0
2017-03-12T03:09:32.457Z,0
2017-03-12T03:10:12.983Z,0
2017-03-12T03:10:53.467Z,0
2017-03-12T03:11:34.055Z,0
2017-03-12T03:12:14.564Z,0
2017-03-12T03:12:55.050Z,0
2017-03-12T03:13:35.577Z,0
2017-03-12T03:14:16.038Z,0
2017-03-12T03:14:56.545Z,0
2017-03-12T03:15:37.040Z,0
2017-03-12T03:16:17.536Z,0
2017-03-12T03:16:58.002Z,0
2017-03-12T03:17:38.505Z,0
2017-03-12T03:18:18.982Z,0
2017-03-12T03:18:59.480Z,0
2017-03-12T03:19:39.965Z,0
2017-03-12T03:20:20.430Z,0
2017-03-12T03:21:00.899Z,0
2017-03-12T03:21:41.375Z,0
2017-03-12T03:22:21.847Z,0
2017-03-12T03:23:02.366Z,0
2017-03-12T03:23:42.855Z,0
2017-03-12T03:24:23.327Z,0
2017-03-12T03:25:03.852Z,0
2017-03-12T03:25:44.397Z,0
2017-03-12T03:26:24.818Z,0
2017-03-12T03:27:05.258Z,0
2017-03-12T03:27:45.726Z,0
2017-03-12T03:28:26.285Z,0
2017-03-12T03:29:06.745Z,0
2017-03-12T03:29:47.244Z,0
2017-03-12T03:30:27.738Z,0
2017-03-12T03:31:08.227Z,0
2017-03-12T03:31:48.763Z,0
2017-03-12T03:32:29.276Z,0
2017-03-12T03:33:09.809Z,0
2017-03-12T03:33:50.266Z,0
2017-03-12T03:34:30.730Z,0
2017-03-12T03:35:11.222Z,0
2017-03-12T03:35:51.689Z,0
2017-03-12T03:36:32.186Z,0
2017-03-12T03:37:12.701Z,0
2017-03-12T03:37:53.182Z,0
2017-03-12T03:38:33.677Z,0
2017-03-12T03:39:14.177Z,0
2017-03-12T03:39:54.655Z,0
2017-03-12T03:40:35.142Z,0
2017-03-12T03:41:15.631Z,0
2017-03-12T03:41:56.107Z,0
2017-03-12T03:42:36.584Z,0
2017-03-12T03:43:17.082Z,0
2017-03-12T03:43:57.556Z,0
2017-03-12T03:44:38.053Z,0
2017-03-12T03:45:18.534Z,0
2017-03-12T03:45:59.084Z,0
2017-03-12T03:46:39.536Z,0
2017-03-12T03:47:20.055Z,0
2017-03-12T03:48:00.575Z,0
2017-03-12T03:48:41.015Z,0
2017-03-12T03:49:21.488Z,0
2017-03-12T03:50:02.016Z,0
2017-03-12T03:50:42.485Z,0
2017-03-12T03:51:23.005Z,0
2017-03-12T03:52:03.461Z,0
2017-03-12T03:52:43.957Z,0
2017-03-12T03:53:24.457Z,0
2017-03-12T03:54:04.910Z,0
2017-03-12T03:54:45.416Z,0
2017-03-12T03:55:25.919Z,0
2017-03-12T03:56:06.376Z,0
2017-03-12T03:56:46.853Z,0
2017-03-12T03:57:27.323Z,0
2017-03-12T03:58:07.811Z,0
2017-03-12T03:58:48.333Z,0
2017-03-12T03:59:28.864Z,0
2017-03-12T04:00:09.318Z,0
2017-03-12T04:00:49.846Z,0
2017-03-12T04:01:30.314Z,0
2017-03-12T04:02:10.812Z,0
2017-03-12T04:02:51.320Z,0
2017-03-12T04:03:31.783Z,0
2017-03-12T04:04:12.269Z,0
2017-03-12T04:04:52.760Z,0
2017-03-12T04:05:33.265Z,0
2017-03-12T04:06:13.724Z,0
2017-03-12T04:06:54.228Z,0
2017-03-12T04:07:34.688Z,0
2017-03-12T04:08:15.166Z,0
2017-03-12T04:08:55.628Z,0
2017-03-12T04:09:36.130Z,0
2017-03-12T04:10:16.614Z,0
2017-03-12T04:10:57.123Z,0
2017-03-12T04:11:37.644Z,0
2017-03-12T04:12:18.151Z,0
2017-03-12T04:12:58.668Z,0
2017-03-12T04:13:39.161Z,0
2017-03-12T04:14:19.659Z,0
2017-03-12T04:15:00.108Z,0
2017-03-12T04:15:40.603Z,0
2017-03-12T04:16:21.130Z,0
2017-03-12T04:17:01.613Z,0
2017-03-12T04:17:42.073Z,0
2017-03-12T04:18:22.568Z,0
2017-03-12T04:19:03.090Z,0
2017-03-12T04:19:43.593Z,0
2017-03-12T04:20:24.103Z,0
2017-03-12T04:21:04.545Z,0
2017-03-12T04:21:45.020Z,0
2017-03-12T04:22:25.534Z,0
2017-03-12T04:23:06.007Z,0
2017-03-12T04:23:46.558Z,0
2017-03-12T04:24:27.041Z,0
2017-03-12T04:25:07.525Z,0
2017-03-12T04:25:48.002Z,0
2017-03-12T04:26:28.491Z,0
2017-03-12T04:27:08.989Z,0
2017-03-12T04:27:49.465Z,0
2017-03-12T04:28:29.944Z,0
2017-03-12T04:29:10.412Z,0
2017-03-12T04:29:50.899Z,0
2017-03-12T04:30:31.416Z,0
2017-03-12T04:31:11.897Z,0
2017-03-12T04:31:52.405Z,0
2017-03-12T04:32:32.871Z,0
2017-03-12T04:33:13.352Z,0
2017-03-12T04:33:53.846Z,0
2017-03-12T04:34:34.393Z,0
2017-03-12T04:35:14.887Z,0
2017-03-12T04:35:55.373Z,0
2017-03-12T04:36:35.841Z,0
2017-03-12T04:37:16.304Z,0
2017-03-12T04:37:56.823Z,0
2017-03-12T04:38:37.295Z,0
2017-03-12T04:39:17.789Z,0
2017-03-12T04:39:58.301Z,0
2017-03-12T04:40:38.823Z,0
2017-03-12T04:41:19.350Z,0
2017-03-12T04:41:59.842Z,0
2017-03-12T04:42:40.331Z,0
2017-03-12T04:43:20.820Z,0
2017-03-12T04:44:01.288Z,0
2017-03-12T04:44:41.790Z,0
2017-03-12T04:45:22.264Z,0
2017-03-12T04:46:02.729Z,0
2017-03-12T04:46:43.227Z,0
2017-03-12T04:47:23.703Z,0
2017-03-12T04:48:04.228Z,0
2017-03-12T04:48:44.742Z,0
2017-03-12T04:49:25.235Z,0
2017-03-12T04:50:05.729Z,0
2017-03-12T04:50:46.199Z,0
2017-03-12T04:51:26.710Z,0
2017-03-12T04:52:07.187Z,0
2017-03-12T04:52:47.647Z,0
2017-03-12T04:53:28.122Z,0
2017-03-12T04:54:08.580Z,0
2017-03-12T04:54:49.129Z,0
2017-03-12T04:55:29.639Z,0
2017-03-12T04:56:10.116Z,0
2017-03-12T04:56:50.584Z,0
2017-03-12T04:57:31.042Z,0
2017-03-12T04:58:11.543Z,0
2017-03-12T04:58:52.014Z,0
2017-03-12T04:59:32.504Z,0
2017-03-12T05:00:12.987Z,0
2017-03-12T05:00:53.491Z,0
2017-03-12T05:01:33.946Z,0
2017-03-12T05:02:14.436Z,0
2017-03-12T05:02:54.917Z,0
2017-03-12T05:03:35.383Z,0
2017-03-12T05:04:15.857Z,0
2017-03-12T05:04:56.363Z,0
2017-03-12T05:05:36.864Z,0
2017-03-12T05:06:17.322Z,0
2017-03-12T05:06:57.816Z,0
2017-03-12T05:07:38.296Z,0
2017-03-12T05:08:18.779Z,0
2017-03-12T05:08:59.313Z,0
2017-03-12T05:09:39.798Z,0
2017-03-12T05:10:20.261Z,0
2017-03-12T05:11:00.755Z,0
2017-03-12T05:11:41.233Z,0
2017-03-12T05:12:21.725Z,0
2017-03-12T05:13:02.215Z,0
2017-03-12T05:13:42.690Z,0
2017-03-12T05:14:23.161Z,0
2017-03-12T05:15:03.642Z,0
2017-03-12T05:15:44.155Z,0
2017-03-12T05:16:24.637Z,0
2017-03-12T05:17:05.127Z,0
2017-03-12T05:17:45.621Z,0
2017-03-12T05:18:26.093Z,0
2017-03-12T05:19:06.593Z,0
2017-03-12T05:19:47.108Z,0
2017-03-12T05:20:27.609Z,0
2017-03-12T05:21:08.126Z,0
2017-03-12T05:21:48.548Z,0
2017-03-12T05:22:29.035Z,0
2017-03-12T05:23:09.533Z,0
2017-03-12T05:23:50.025Z,0
2017-03-12T05:24:30.495Z,0
2017-03-12T05:25:10.982Z,0
2017-03-12T05:25:51.465Z,0
2017-03-12T05:26:31.943Z,0
2017-03-12T05:27:12.467Z,0
2017-03-12T05:27:52.944Z,0
2017-03-12T05:28:33.437Z,0
2017-03-12T05:29:13.928Z,0
2017-03-12T05:29:54.416Z,0
2017-03-12T05:30:34.913Z,0
2017-03-12T05:31:15.394Z,0
2017-03-12T05:31:55.872Z,0
2017-03-12T05:32:36.368Z,0
2017-03-12T05:33:16.822Z,0
2017-03-12T05:33:57.299Z,0
2017-03-12T05:34:37.768Z,0
2017-03-12T05:35:18.237Z,0
2017-03-12T05:35:58.720Z,0
2017-03-12T05:36:39.215Z,0
2017-03-12T05:37:19.692Z,0
2017-03-12T05:38:00.185Z,0
2017-03-12T05:38:40.658Z,0
2017-03-12T05:39:21.117Z,0
2017-03-12T05:40:01.583Z,0
2017-03-12T05:40:42.072Z,0
2017-03-12T05:41:22.562Z,0
2017-03-12T05:42:03.023Z,0
2017-03-12T05:42:43.533Z,0
2017-03-12T05:43:24.078Z,0
2017-03-12T05:44:04.496Z,5
2017-03-12T05:44:44.992Z,5
2017-03-12T05:45:25.455Z,5
2017-03-12T05:46:05.966Z,5
2017-03-12T05:46:46.436Z,5
2017-03-12T05:47:26.912Z,5
2017-03-12T05:48:07.409Z,5
2017-03-12T05:48:47.865Z,5
2017-03-12T05:49:28.380Z,5
2017-03-12T05:50:08.852Z,5
2017-03-12T05:50:49.326Z,5
2017-03-12T05:51:29.815Z,5
2017-03-12T05:52:10.282Z,5
2017-03-12T05:52:50.777Z,5
2017-03-12T05:53:31.247Z,5
2017-03-12T05:54:11.748Z,5
2017-03-12T05:54:52.253Z,5
2017-03-12T05:55:32.724Z,5
2017-03-12T05:56:13.190Z,10
2017-03-12T05:56:53.675Z,10
2017-03-12T05:57:34.190Z,10
2017-03-12T05:58:14.708Z,10
2017-03-12T05:58:55.160Z,10
2017-03-12T05:59:35.633Z,10
2017-03-12T06:00:16.157Z,10
2017-03-12T06:00:56.597Z,10
2017-03-12T06:01:37.096Z,10
2017-03-12T06:02:17.564Z,10
2017-03-12T06:02:58.040Z,15
2017-03-12T06:03:38.560Z,15
2017-03-12T06:04:19.021Z,15
2017-03-12T06:04:59.510Z,15
2017-03-12T06:05:40.018Z,15
2017-03-12T06:06:20.507Z,15
2017-03-12T06:07:00.991Z,15
2017-03-12T06:07:41.434Z,15
2017-03-12T06:08:21.926Z,20
2017-03-12T06:09:02.424Z,20
2017-03-12T06:09:42.889Z,20
2017-03-12T06:10:23.372Z,20
2017-03-12T06:11:03.851Z,20
2017-03-12T06:11:44.327Z,20
2017-03-12T06:12:24.809Z,20
2017-03-12T06:13:05.294Z,20
2017-03-12T06:13:45.790Z,20
2017-03-12T06:14:26.247Z,25
2017-03-12T06:15:06.742Z,25
2017-03-12T06:15:47.240Z,25
2017-03-12T06:16:27.741Z,25
2017-03-12T06:17:08.222Z,25
2017-03-12T06:17:48.711Z,25
2017-03-12T06:18:29.256Z,25
2017-03-12T06:19:09.736Z,25
2017-03-12T06:19:50.242Z,25
2017-03-12T06:20:30.704Z,30
2017-03-12T06:21:11.196Z,30
2017-03-12T06:21:51.666Z,30
2017-03-12T06:22:32.183Z,30
2017-03-12T06:23:12.704Z,30
2017-03-12T06:23:53.175Z,30
2017-03-12T06:24:33.674Z,30
2017-03-12T06:25:14.156Z,30
2017-03-12T06:25:54.666Z,35
2017-03-12T06:26:35.114Z,35
2017-03-12T06:27:15.633Z,35
2017-03-12T06:27:56.109Z,35
2017-03-12T06:28:36.614Z,35
2017-03-12T06:29:17.138Z,35
2017-03-12T06:29:57.570Z,40
2017-03-12T06:30:38.040Z,40
2017-03-12T06:31:18.527Z,40
2017-03-12T06:31:58.991Z,40
2017-03-12T06:32:39.488Z,40
2017-03-12T06:33:19.937Z,45
2017-03-12T06:34:00.464Z,45
2017-03-12T06:34:40.924Z,45
2017-03-12T06:35:21.412Z,45
2017-03-12T06:36:01.911Z,45
2017-03-12T06:36:42.406Z,50
2017-03-12T06:37:22.896Z,50
2017-03-12T06:38:03.378Z,50
2017-03-12T06:38:43.862Z,50
2017-03-12T06:39:24.352Z,55
2017-03-12T06:40:04.810Z,55
2017-03-12T06:40:45.320Z,55
2017-03-12T06:41:25.764Z,55
2017-03-12T06:42:06.278Z,60
2017-03-12T06:42:46.742Z,60
2017-03-12T06:43:27.219Z,60
2017-03-12T06:44:07.720Z,60
2017-03-12T06:44:48.218Z,65
2017-03-12T06:45:28.735Z,65
2017-03-12T06:46:09.201Z,65
2017-03-12T06:46:49.719Z,65
2017-03-12T06:47:30.176Z,65
2017-03-12T06:48:10.682Z,65
2017-03-12T06:48:51.175Z,65
2017-03-12T06:49:31.652Z,65
2017-03-12T06:50:12.183Z,65
2017-03-12T06:50:52.687Z,70
2017-03-12T06:51:33.202Z,70
2017-03-12T06:52:13.703Z,70
2017-03-12T06:52:54.189Z,70
2017-03-12T06:53:34.650Z,75
2017-03-12T06:54:15.116Z,75
2017-03-12T06:54:55.614Z,75
2017-03-12T06:55:36.182Z,75
2017-03-12T06:56:16.739Z,75
2017-03-12T06:56:57.221Z,80
2017-03-12T06:57:37.762Z,80
2017-03-12T06:58:18.309Z,80
2017-03-12T06:58:58.779Z,80
2017-03-12T06:59:39.287Z,80
2017-03-12T07:00:19.809Z,80
2017-03-12T07:01:00.278Z,80
2017-03-12T07:01:40.772Z,80
2017-03-12T07:04:19.443Z,85
2017-03-12T07:04:59.917Z,85
2017-03-12T07:05:40.450Z,85
2017-03-12T07:06:20.977Z,85
2017-03-12T07:07:01.435Z,85
2017-03-12T07:07:41.908Z,85
2017-03-12T07:08:22.444Z,85
2017-03-12T07:09:02.921Z,85
2017-03-12T07:09:43.385Z,85
2017-03-12T07:10:23.866Z,85
2017-03-12T07:11:04.391Z,85
2017-03-12T07:11:44.915Z,90
2017-03-12T07:12:25.447Z,90
2017-03-12T07:13:05.920Z,90
2017-03-12T07:13:46.408Z,90
2017-03-12T07:14:26.926Z,90
2017-03-12T07:15:07.394Z,90
2017-03-12T07:15:47.886Z,90
2017-03-12T07:16:28.333Z,95
2017-03-12T07:17:08.835Z,95
2017-03-12T07:17:49.432Z,95
2017-03-12T07:18:29.900Z,95
2017-03-12T07:19:10.367Z,95
2017-03-12T07:19:50.839Z,95
2017-03-12T07:20:31.337Z,95
2017-03-12T07:21:11.859Z,95
2017-03-12T07:21:52.387Z,95
2017-03-12T07:22:32.892Z,95
2017-03-12T07:23:13.342Z,100
2017-03-12T07:23:53.808Z,100
2017-03-12T07:24:34.290Z,100
2017-03-12T07:25:14.775Z,100
2017-03-12T07:25:55.248Z,100
2017-03-12T07:26:35.759Z,100
2017-03-12T07:27:16.215Z,100
2017-03-12T07:27:56.714Z,100
2017-03-12T07:28:37.193Z,100
2017-03-12T07:29:17.670Z,100
2017-03-12T07:29:58.146Z,100
2017-03-12T07:30:38.645Z,100
2017-03-12T07:31:19.133Z,100
2017-03-12T07:31:59.603Z,100
2017-03-12T07:32:40.093Z,100
2017-03-12T07:33:20.575Z,100
2017-03-12T07:34:01.068Z,100
2017-03-12T07:34:41.546Z,100
2017-03-12T07:35:22.018Z,100
2017-03-12T07:36:02.538Z,100
2017-03-12T07:36:43.014Z,100
2017-03-12T07:37:23.555Z,100
2017-03-12T07:38:04.044Z,100
2017-03-12T07:38:44.548Z,100
2017-03-12T07:39:25.052Z,105
2017-03-12T07:40:05.521Z,105
2017-03-12T07:40:45.999Z,105
2017-03-12T07:41:26.504Z,105
2017-03-12T07:42:06.971Z,105
2017-03-12T07:42:47.517Z,105
2017-03-12T07:43:27.995Z,105
2017-03-12T07:44:08.511Z,105
2017-03-12T07:44:49.014Z,105
2017-03-12T07:45:29.502Z,105
2017-03-12T07:46:10.007Z,105
2017-03-12T07:46:50.480Z,105
2017-03-12T07:47:31.004Z,105
2017-03-12T07:48:11.571Z,105
2017-03-12T07:48:52.172Z,105
2017-03-12T07:49:32.600Z,105
2017-03-12T07:50:13.092Z,110
2017-03-12T07:50:53.560Z,110
2017-03-12T07:51:34.193Z,110
2017-03-12T07:52:14.660Z,110
2017-03-12T07:52:55.148Z,110
2017-03-12T07:53:35.597Z,110
2017-03-12T07:54:16.099Z,110
2017-03-12T07:54:56.636Z,115
2017-03-12T07:55:37.153Z,115
2017-03-12T07:56:17.679Z,115
2017-03-12T07:56:58.167Z,115
2017-03-12T07:57:38.671Z,120
2017-03-12T07:58:19.125Z,120
2017-03-12T07:58:59.658Z,120
2017-03-12T07:59:40.127Z,120
2017-03-12T08:00:20.607Z,125
2017-03-12T08:01:01.109Z,125
2017-03-12T08:01:41.580Z,130
2017-03-12T08:02:22.110Z,130
2017-03-12T08:03:02.624Z,130
2017-03-12T08:03:43.058Z,130
2017-03-12T08:04:23.541Z,130
2017-03-12T08:05:04.047Z,135
2017-03-12T08:05:44.581Z,140
2017-03-12T08:06:25.090Z,140
2017-03-12T08:07:05.573Z,140
2017-03-12T08:07:46.074Z,145
2017-03-12T08:08:26.570Z,145
2017-03-12T08:09:07.065Z,150
2017-03-12T08:09:47.542Z,150
2017-03-12T08:10:28.086Z,155
2017-03-12T08:11:08.603Z,160
2017-03-12T08:11:49.066Z,160
2017-03-12T08:12:29.579Z,165
2017-03-12T08:13:10.106Z,170
2017-03-12T08:13:50.564Z,175
2017-03-12T08:14:31.027Z,180
2017-03-12T08:15:11.529Z,180
2017-03-12T08:15:52.177Z,185
2017-03-12T08:16:32.649Z,185
2017-03-12T08:17:13.100Z,190
2017-03-12T08:17:53.604Z,190
2017-03-12T08:18:34.056Z,195
2017-03-12T08:19:14.580Z,195
2017-03-12T08:19:55.069Z,195
2017-03-12T08:20:35.534Z,200
2017-03-12T08:21:16.011Z,200
2017-03-12T08:21:56.615Z,200
2017-03-12T08:22:37.069Z,200
2017-03-12T08:23:17.554Z,200
2017-03-12T08:23:58.033Z,205
2017-03-12T08:24:38.531Z,205
2017-03-12T08:25:18.985Z,205
2017-03-12T08:25:59.454Z,205
2017-03-12T08:26:39.935Z,210
2017-03-12T08:27:20.430Z,210
2017-03-12T08:28:00.883Z,210
2017-03-12T08:28:41.387Z,210
2017-03-12T08:29:21.916Z,215
2017-03-12T08:30:02.376Z,215
2017-03-12T08:30:42.856Z,215
2017-03-12T08:31:23.378Z,220
2017-03-12T08:33:41.698Z,225
2017-03-12T08:34:22.181Z,230
2017-03-12T08:35:02.669Z,230
2017-03-12T08:35:43.190Z,230
2017-03-12T08:36:23.682Z,230
2017-03-12T08:37:04.183Z,230
2017-03-12T08:37:44.684Z,235
2017-03-12T08:38:25.194Z,240
2017-03-12T08:39:05.672Z,235
2017-03-12T08:39:46.192Z,240
2017-03-12T08:40:26.673Z,235
2017-03-12T08:41:07.161Z,235
2017-03-12T08:41:47.636Z,245
2017-03-12T08:42:28.144Z,240
2017-03-12T08:43:08.592Z,240
2017-03-12T08:43:49.076Z,240
2017-03-12T08:44:31.238Z,240
2017-03-12T08:45:11.713Z,240
2017-03-12T08:45:52.213Z,240
2017-03-12T08:46:32.696Z,240
2017-03-12T08:47:13.188Z,240
2017-03-12T08:47:53.636Z,240
2017-03-12T08:48:34.119Z,240
2017-03-12T08:49:14.656Z,240
2017-03-12T08:49:55.129Z,240
2017-03-12T08:50:35.609Z,240
2017-03-12T08:51:16.064Z,240
2017-03-12T08:51:56.553Z,240
2017-03-12T08:52:37.028Z,240
2017-03-12T08:53:17.481Z,240
2017-03-12T08:53:58.029Z,240
2017-03-12T08:54:38.512Z,240
2017-03-12T08:55:19.052Z,240
2017-03-12T08:55:59.496Z,240
2017-03-12T08:56:39.969Z,240
2017-03-12T08:57:20.471Z,245
2017-03-12T08:58:00.925Z,245
2017-03-12T08:58:41.422Z,245
2017-03-12T08:59:21.912Z,245
2017-03-12T09:00:02.390Z,245
2017-03-12T09:00:42.870Z,245
2017-03-12T09:01:23.336Z,250
2017-03-12T09:02:03.836Z,250
2017-03-12T09:02:44.326Z,250
2017-03-12T09:03:24.803Z,250
2017-03-12T09:04:05.306Z,250
2017-03-12T09:04:45.776Z,250
2017-03-12T09:05:26.279Z,250
2017-03-12T09:06:06.826Z,250
2017-03-12T09:06:47.302Z,250
2017-03-12T09:07:27.783Z,250
2017-03-12T09:08:08.253Z,250
2017-03-12T09:08:48.746Z,255
2017-03-12T09:09:29.265Z,255
2017-03-12T09:10:09.693Z,255
2017-03-12T09:10:50.180Z,255
2017-03-12T09:11:30.715Z,255
2017-03-12T09:12:11.196Z,265
2017-03-12T09:12:51.695Z,260
2017-03-12T09:13:32.181Z,265
2017-03-12T09:14:12.647Z,260
2017-03-12T09:14:53.212Z,265
2017-03-12T09:15:33.659Z,265
2017-03-12T09:16:14.184Z,265
2017-03-12T09:16:54.613Z,265
2017-03-12T09:17:35.092Z,265
2017-03-12T09:18:15.585Z,265
2017-03-12T09:18:56.068Z,265
2017-03-12T09:19:36.544Z,270
2017-03-12T09:20:17.007Z,270
2017-03-12T09:20:57.522Z,270
2017-03-12T09:21:38.020Z,270
2017-03-12T09:22:18.467Z,270
2017-03-12T09:22:58.982Z,270
2017-03-12T09:23:39.461Z,270
2017-03-12T09:24:19.987Z,275
2017-03-12T09:25:00.562Z,275
2017-03-12T09:25:41.057Z,275
2017-03-12T09:26:21.543Z,275
2017-03-12T09:27:02.008Z,275
2017-03-12T09:27:42.507Z,275
2017-03-12T09:28:22.970Z,275
2017-03-12T09:29:03.486Z,275
2017-03-12T09:29:43.935Z,275
2017-03-12T09:30:24.430Z,280
2017-03-12T09:31:04.930Z,280
2017-03-12T09:31:45.382Z,280
2017-03-12T09:32:25.889Z,280
2017-03-12T09:33:06.374Z,280
2017-03-12T09:33:46.881Z,280
2017-03-12T09:34:27.362Z,280
2017-03-12T09:35:07.844Z,280
2017-03-12T09:35:48.354Z,280
2017-03-12T09:36:28.786Z,280
2017-03-12T09:37:09.263Z,280
2017-03-12T09:37:49.753Z,280
2017-03-12T09:38:30.278Z,275
2017-03-12T09:39:10.724Z,275
2017-03-12T09:39:51.213Z,275
2017-03-12T09:40:31.669Z,275
2017-03-12T09:41:12.167Z,275
2017-03-12T09:41:52.664Z,280
2017-03-12T09:42:33.208Z,275
2017-03-12T09:43:13.640Z,275
2017-03-12T09:43:54.126Z,275
2017-03-12T09:44:34.571Z,275
2017-03-12T09:45:15.029Z,275
2017-03-12T09:45:55.558Z,275
2017-03-12T09:46:35.980Z,280
2017-03-12T09:47:16.514Z,280
2017-03-12T09:47:56.996Z,280
2017-03-12T09:48:37.519Z,280